Time;durP1;ratioP1;P1;durP2;ratioP2;P2;SDS_P1;SDS_P2;PMS_P1;PMS_P2;Temp;Humidity;BMP_temperature;BMP_pressure;BME280_temperature;BME280_humidity;BME280_pressure;Samples;Min_cycle;Max_cycle;Signal;HPM_P1;HPM_P2
2024/03/31 00:03:56;;;;;;;7.00;2.10;;;;;;;;;;10079520;28;20052;-75
2024/03/31 00:09:00;;;;;;;3.95;1.85;;;;;;;;;;10078110;28;20148;-75
2024/03/31 00:14:02;;;;;;;5.10;2.17;;;;;;;;;;10072975;28;20131;-75
2024/03/31 00:19:05;;;;;;;7.10;1.80;;;;;;;;;;10073701;28;20179;-75
2024/03/31 00:24:09;;;;;;;4.60;2.53;;;;;;;;;;10102407;28;20571;-75
2024/03/31 00:29:11;;;;;;;4.50;1.90;;;;;;;;;;10073429;28;20052;-75
2024/03/31 00:34:14;;;;;;;5.07;2.28;;;;;;;;;;10073908;28;20525;-75
2024/03/31 00:39:18;;;;;;;3.63;1.75;;;;;;;;;;10092607;28;20060;-75
2024/03/31 00:44:20;;;;;;;3.60;1.85;;;;;;;;;;10069296;28;20049;-74
2024/03/31 00:49:23;;;;;;;4.22;1.90;;;;;;;;;;10082145;28;20136;-75
2024/03/31 00:54:27;;;;;;;4.40;1.92;;;;;;;;;;10078749;28;20053;-75
2024/03/31 00:59:29;;;;;;;7.05;1.95;;;;;;;;;;10074482;28;20120;-75
2024/03/31 01:04:32;;;;;;;5.15;2.42;;;;;;;;;;10077399;28;20069;-75
2024/03/31 01:09:36;;;;;;;5.43;2.30;;;;;;;;;;10091006;28;20050;-75
2024/03/31 01:14:40;;;;;;;5.53;1.90;;;;;;;;;;10092324;28;20080;-75
2024/03/31 01:19:42;;;;;;;4.00;1.98;;;;;;;;;;10071678;28;20103;-75
2024/03/31 01:24:46;;;;;;;6.15;2.13;;;;;;;;;;10082009;28;20156;-74
2024/03/31 01:29:50;;;;;;;7.00;1.80;;;;;;;;;;10163558;28;20072;-75
2024/03/31 01:34:52;;;;;;;5.20;2.22;;;;;;;;;;10072512;28;20503;-75
2024/03/31 01:39:58;;;;;;;4.65;1.70;;;;;;;;;;10084037;28;20132;-75
2024/03/31 01:45:00;;;;;;;3.40;1.52;;;;;;;;;;10065741;28;20044;-75
2024/03/31 01:50:03;;;;;;;3.92;1.33;;;;;;;;;;10065513;28;20082;-75
2024/03/31 01:55:07;;;;;;;4.03;1.58;;;;;;;;;;10117778;28;20113;-75
2024/03/31 02:00:11;;;;;;;4.78;2.00;;;;;;;;;;10085643;28;20064;-75
2024/03/31 02:05:17;;;;;;;2.80;1.63;;;;;;;;;;10133098;28;20048;-75
2024/03/31 02:10:21;;;;;;;4.88;1.38;;;;;;;;;;10092983;28;20060;-75
2024/03/31 02:15:23;;;;;;;3.15;1.48;;;;;;;;;;10135904;28;20080;-75
2024/03/31 02:20:26;;;;;;;4.15;1.63;;;;;;;;;;10078730;28;20076;-75
2024/03/31 02:25:30;;;;;;;3.55;1.27;;;;;;;;;;10077929;28;20050;-75
2024/03/31 02:30:32;;;;;;;3.30;1.20;;;;;;;;;;10058129;28;20077;-75
2024/03/31 02:35:35;;;;;;;3.83;1.52;;;;;;;;;;10058621;28;20054;-75
2024/03/31 02:40:38;;;;;;;2.15;1.38;;;;;;;;;;10100435;28;20053;-74
2024/03/31 02:45:41;;;;;;;2.22;1.10;;;;;;;;;;10073445;28;20423;-75
2024/03/31 02:50:47;;;;;;;3.03;1.27;;;;;;;;;;10095971;28;20458;-75
2024/03/31 02:55:51;;;;;;;8.18;1.60;;;;;;;;;;10096454;28;20447;-74
2024/03/31 03:01:03;;;;;;;2.63;1.00;;;;;;;;;;10090346;28;20099;-74
2024/03/31 03:06:06;;;;;;;4.95;1.40;;;;;;;;;;10091111;28;20048;-74
2024/03/31 03:11:10;;;;;;;2.97;1.25;;;;;;;;;;10086109;28;20590;-74
2024/03/31 03:16:13;;;;;;;2.50;1.10;;;;;;;;;;10078091;28;20049;-74
2024/03/31 03:21:15;;;;;;;3.83;1.45;;;;;;;;;;10095831;28;20064;-75
2024/03/31 03:26:19;;;;;;;4.13;1.50;;;;;;;;;;10100380;28;20148;-74
2024/03/31 03:31:22;;;;;;;4.47;1.25;;;;;;;;;;10096843;28;20048;-75
2024/03/31 03:36:24;;;;;;;3.22;1.17;;;;;;;;;;10123788;28;20052;-74
2024/03/31 03:41:28;;;;;;;4.03;1.38;;;;;;;;;;10095411;28;20079;-75
2024/03/31 03:46:32;;;;;;;3.63;1.23;;;;;;;;;;10103575;28;20045;-74
2024/03/31 03:51:36;;;;;;;3.58;1.27;;;;;;;;;;10094709;28;20530;-75
2024/03/31 03:56:44;;;;;;;5.10;1.15;;;;;;;;;;10093866;28;20099;-75
2024/03/31 04:01:46;;;;;;;1.60;1.00;;;;;;;;;;10162656;28;20684;-75
2024/03/31 04:06:49;;;;;;;3.45;1.35;;;;;;;;;;10091111;28;20418;-75
2024/03/31 04:11:53;;;;;;;4.15;2.05;;;;;;;;;;10121027;28;20119;-75
2024/03/31 04:16:55;;;;;;;4.32;2.03;;;;;;;;;;10107427;28;20048;-75
2024/03/31 04:21:58;;;;;;;3.97;1.55;;;;;;;;;;10130449;28;20464;-75
2024/03/31 04:27:02;;;;;;;5.03;1.70;;;;;;;;;;10092567;28;20053;-75
2024/03/31 04:32:05;;;;;;;3.13;1.10;;;;;;;;;;10094486;28;20044;-75
2024/03/31 04:37:08;;;;;;;3.28;0.93;;;;;;;;;;10101921;28;20052;-75
2024/03/31 04:42:12;;;;;;;2.58;1.08;;;;;;;;;;10094083;28;20116;-75
2024/03/31 04:47:15;;;;;;;6.72;1.52;;;;;;;;;;10075347;28;20403;-75
2024/03/31 04:52:17;;;;;;;2.63;0.90;;;;;;;;;;10096435;28;20742;-75
2024/03/31 04:57:23;;;;;;;3.28;1.30;;;;;;;;;;10083747;28;20132;-75
2024/03/31 05:02:26;;;;;;;3.00;0.90;;;;;;;;;;10090534;28;20041;-75
2024/03/31 05:07:29;;;;;;;1.77;0.70;;;;;;;;;;10095151;28;20053;-75
2024/03/31 05:12:33;;;;;;;4.65;0.98;;;;;;;;;;10157783;28;20140;-75
2024/03/31 05:17:36;;;;;;;5.28;0.90;;;;;;;;;;10093827;28;20045;-74
2024/03/31 05:22:38;;;;;;;2.58;1.10;;;;;;;;;;10089292;28;20140;-75
2024/03/31 05:27:42;;;;;;;4.70;0.98;;;;;;;;;;10093517;28;20143;-75
2024/03/31 05:32:45;;;;;;;2.92;0.82;;;;;;;;;;10123151;28;20053;-75
2024/03/31 05:37:58;;;;;;;2.10;1.10;;;;;;;;;;10093691;28;20088;-75
2024/03/31 05:43:02;;;;;;;1.88;1.15;;;;;;;;;;10105285;28;20044;-75
2024/03/31 05:48:05;;;;;;;4.57;1.40;;;;;;;;;;10149955;28;20056;-75
2024/03/31 05:53:11;;;;;;;5.20;1.88;;;;;;;;;;10153955;28;20167;-75
2024/03/31 05:58:15;;;;;;;3.47;1.38;;;;;;;;;;10113247;28;20057;-75
2024/03/31 06:03:18;;;;;;;3.25;1.30;;;;;;;;;;10128437;28;20045;-75
2024/03/31 06:08:21;;;;;;;4.40;1.60;;;;;;;;;;10097001;28;20756;-75
2024/03/31 06:13:25;;;;;;;3.83;2.00;;;;;;;;;;10135958;28;20137;-75
2024/03/31 06:18:28;;;;;;;6.18;1.67;;;;;;;;;;10220850;28;20062;-75
2024/03/31 06:23:30;;;;;;;3.17;1.30;;;;;;;;;;10140072;28;20156;-75
2024/03/31 06:28:34;;;;;;;3.88;1.38;;;;;;;;;;10128792;28;20148;-75
2024/03/31 06:33:37;;;;;;;3.92;1.10;;;;;;;;;;10120874;28;20045;-75
2024/03/31 06:38:40;;;;;;;3.15;1.20;;;;;;;;;;10129773;28;20063;-74
2024/03/31 06:43:45;;;;;;;4.38;2.25;;;;;;;;;;10108060;28;20056;-75
2024/03/31 06:48:48;;;;;;;3.80;1.90;;;;;;;;;;10198500;28;21653;-75
2024/03/31 06:53:51;;;;;;;3.80;1.42;;;;;;;;;;10179673;28;20180;-75
2024/03/31 06:58:55;;;;;;;1.90;0.98;;;;;;;;;;10171873;28;20084;-75
2024/03/31 07:03:57;;;;;;;2.05;1.25;;;;;;;;;;10198873;28;20147;-75
2024/03/31 07:09:00;;;;;;;4.80;1.52;;;;;;;;;;10153375;28;20096;-75
2024/03/31 07:14:04;;;;;;;3.75;1.65;;;;;;;;;;10122609;28;20067;-75
2024/03/31 07:19:07;;;;;;;5.32;1.52;;;;;;;;;;10102491;28;20052;-75
2024/03/31 07:24:11;;;;;;;2.25;1.20;;;;;;;;;;10180433;28;20581;-75
2024/03/31 07:29:15;;;;;;;1.60;1.13;;;;;;;;;;10095047;28;20458;-75
2024/03/31 07:34:20;;;;;;;5.28;1.55;;;;;;;;;;10139926;28;20050;-75
2024/03/31 07:39:23;;;;;;;2.42;1.20;;;;;;;;;;10103902;28;20053;-75
2024/03/31 07:44:27;;;;;;;1.77;0.90;;;;;;;;;;10116568;28;20076;-76
2024/03/31 07:49:35;;;;;;;3.35;0.93;;;;;;;;;;10085944;28;20052;-76
2024/03/31 07:54:37;;;;;;;3.25;0.90;;;;;;;;;;10136649;28;20392;-76
2024/03/31 07:59:42;;;;;;;5.05;1.63;;;;;;;;;;10169110;28;20872;-76
2024/03/31 08:04:45;;;;;;;3.78;1.00;;;;;;;;;;10182311;28;20702;-77
2024/03/31 08:09:48;;;;;;;2.50;0.90;;;;;;;;;;10111132;28;20135;-76
2024/03/31 08:14:52;;;;;;;6.35;1.85;;;;;;;;;;10147191;28;20073;-76
2024/03/31 08:25:42;;;;;;;5.03;2.20;;;;;;;;;;10188380;28;20067;-76
2024/03/31 08:30:57;;;;;;;4.35;1.80;;;;;;;;;;10086240;28;20044;-76
2024/03/31 08:36:06;;;;;;;2.97;1.80;;;;;;;;;;10103570;28;20356;-76
2024/03/31 08:41:27;;;;;;;4.65;1.95;;;;;;;;;;10096273;28;22072;-76
2024/03/31 08:46:42;;;;;;;2.55;1.35;;;;;;;;;;10135398;28;20532;-75
2024/03/31 08:51:48;;;;;;;3.25;1.65;;;;;;;;;;10141635;28;20060;-76
2024/03/31 08:56:55;;;;;;;4.50;1.80;;;;;;;;;;10090087;28;20075;-76
2024/03/31 09:02:32;;;;;;;5.53;1.80;;;;;;;;;;10094512;28;20179;-76
2024/03/31 09:07:38;;;;;;;3.67;1.33;;;;;;;;;;10086855;28;20076;-75
2024/03/31 09:12:50;;;;;;;6.85;1.30;;;;;;;;;;10124076;28;20547;-76
2024/03/31 09:24:39;;;;;;;0.82;0.70;;;;;;;;;;10013429;28;20061;-76
2024/03/31 09:49:16;;;;;;;;;;;;;;;;;;;;;
2024/03/31 09:55:35;;;;;;;2.17;0.90;;;;;;;;;;9932627;28;20128;-76
2024/03/31 10:01:20;;;;;;;2.35;0.88;;;;;;;;;;10075475;29;20064;-76
2024/03/31 10:07:04;;;;;;;3.13;0.90;;;;;;;;;;10082064;28;20084;-76
2024/03/31 10:12:45;;;;;;;3.85;0.70;;;;;;;;;;10086219;28;20424;-76
2024/03/31 10:17:52;;;;;;;3.38;1.15;;;;;;;;;;10054859;28;20087;-76
2024/03/31 10:23:05;;;;;;;3.72;0.50;;;;;;;;;;10135073;28;20056;-75
2024/03/31 10:28:43;;;;;;;3.10;0.90;;;;;;;;;;10122072;28;20119;-76
2024/03/31 10:34:23;;;;;;;3.25;0.90;;;;;;;;;;10130535;28;20091;-76
2024/03/31 10:40:21;;;;;;;;;;;;;;;;;;;;;
2024/03/31 10:52:57;;;;;;;;;;;;;;;;;;;;;
2024/03/31 11:19:15;;;;;;;3.40;0.50;;;;;;;;;;10400342;22;20465;-74
2024/03/31 11:24:18;;;;;;;2.85;0.93;;;;;;;;;;10227824;28;20072;-75
2024/03/31 11:29:22;;;;;;;5.72;0.85;;;;;;;;;;10204967;28;20048;-75
2024/03/31 11:34:27;;;;;;;4.75;1.17;;;;;;;;;;10193843;28;20101;-76
2024/03/31 11:39:32;;;;;;;8.70;1.60;;;;;;;;;;10183874;28;20127;-75
2024/03/31 11:44:36;;;;;;;;;;;;;;;;;;10192589;28;20127;-73
2024/03/31 11:49:40;;;;;;;7.25;1.27;;;;;;;;;;10191234;29;19929;-73
2024/03/31 11:54:42;;;;;;;12.48;2.10;;;;;;;;;;10190315;28;20047;-73
2024/03/31 11:59:45;;;;;;;2.55;1.10;;;;;;;;;;10204741;28;20605;-73
2024/03/31 12:04:51;;;;;;;9.13;1.35;;;;;;;;;;10184270;28;20062;-74
2024/03/31 12:09:53;;;;;;;7.13;1.40;;;;;;;;;;10188881;28;20059;-73
2024/03/31 12:14:56;;;;;;;9.48;1.50;;;;;;;;;;10188350;28;20048;-73
2024/03/31 12:20:04;;;;;;;8.63;1.95;;;;;;;;;;10222193;28;20397;-73
2024/03/31 12:25:07;;;;;;;10.02;1.90;;;;;;;;;;10193400;28;20052;-73
2024/03/31 12:30:12;;;;;;;12.40;1.63;;;;;;;;;;10170376;28;20059;-74
2024/03/31 12:35:16;;;;;;;13.30;2.05;;;;;;;;;;10196622;28;20055;-74
2024/03/31 12:40:19;;;;;;;9.80;1.95;;;;;;;;;;10183965;28;20072;-73
2024/03/31 12:45:24;;;;;;;12.32;1.70;;;;;;;;;;10192097;28;20579;-73
2024/03/31 12:50:28;;;;;;;13.40;2.20;;;;;;;;;;10183930;28;20048;-73
2024/03/31 12:55:30;;;;;;;12.38;1.80;;;;;;;;;;10178855;28;20061;-73
2024/03/31 13:00:38;;;;;;;8.15;1.55;;;;;;;;;;10181655;28;20056;-73
2024/03/31 13:05:43;;;;;;;8.65;1.90;;;;;;;;;;10216626;28;20114;-73
2024/03/31 13:10:46;;;;;;;4.03;1.10;;;;;;;;;;10186433;28;20060;-73
2024/03/31 13:15:48;;;;;;;9.60;1.73;;;;;;;;;;10197943;28;20047;-73
2024/03/31 13:20:52;;;;;;;5.82;1.30;;;;;;;;;;10191702;28;20075;-74
2024/03/31 13:25:55;;;;;;;8.13;1.45;;;;;;;;;;10190259;28;20506;-73
2024/03/31 13:30:58;;;;;;;10.73;1.83;;;;;;;;;;10186963;28;20043;-73
2024/03/31 13:36:02;;;;;;;7.72;1.30;;;;;;;;;;10200850;28;20067;-73
2024/03/31 13:41:04;;;;;;;7.53;1.80;;;;;;;;;;10174410;28;20079;-73
2024/03/31 13:46:07;;;;;;;6.43;1.50;;;;;;;;;;10181422;28;20052;-73
2024/03/31 13:51:10;;;;;;;11.82;1.67;;;;;;;;;;10184352;29;20405;-73
2024/03/31 13:56:13;;;;;;;10.35;1.48;;;;;;;;;;10175063;28;20527;-73
2024/03/31 14:01:15;;;;;;;14.63;1.80;;;;;;;;;;10189394;28;20054;-73
2024/03/31 14:06:19;;;;;;;6.90;1.17;;;;;;;;;;10183899;28;20051;-73
2024/03/31 14:11:21;;;;;;;7.72;1.48;;;;;;;;;;10183510;28;20051;-73
2024/03/31 14:16:24;;;;;;;7.65;1.70;;;;;;;;;;10215472;28;20040;-73
2024/03/31 14:21:28;;;;;;;7.15;1.40;;;;;;;;;;10170441;28;20070;-73
2024/03/31 14:26:30;;;;;;;8.88;1.52;;;;;;;;;;10186127;28;20043;-73
2024/03/31 14:31:32;;;;;;;8.77;1.90;;;;;;;;;;10204228;28;20123;-73
2024/03/31 14:36:36;;;;;;;7.30;1.65;;;;;;;;;;10220136;28;20048;-73
2024/03/31 14:41:38;;;;;;;7.28;1.27;;;;;;;;;;10216218;28;20120;-73
2024/03/31 14:46:41;;;;;;;5.53;1.40;;;;;;;;;;10218346;28;20048;-73
2024/03/31 14:51:44;;;;;;;5.75;1.33;;;;;;;;;;10188433;29;20055;-73
2024/03/31 14:56:47;;;;;;;8.23;1.50;;;;;;;;;;10200681;28;20048;-73
2024/03/31 15:01:49;;;;;;;4.38;1.00;;;;;;;;;;10204943;28;20550;-73
2024/03/31 15:06:53;;;;;;;9.15;1.20;;;;;;;;;;10195254;29;20044;-73
2024/03/31 15:11:55;;;;;;;5.75;1.20;;;;;;;;;;10190883;29;20048;-73
2024/03/31 15:16:57;;;;;;;7.03;1.38;;;;;;;;;;10190468;28;20044;-73
2024/03/31 15:22:01;;;;;;;9.27;1.75;;;;;;;;;;10199331;28;20047;-73
2024/03/31 15:27:04;;;;;;;10.25;2.00;;;;;;;;;;10197228;28;20055;-73
2024/03/31 15:32:06;;;;;;;9.75;1.20;;;;;;;;;;10196655;28;20054;-73
2024/03/31 15:37:10;;;;;;;10.93;2.00;;;;;;;;;;10198644;28;20048;-73
2024/03/31 15:42:14;;;;;;;11.02;2.20;;;;;;;;;;10188929;28;20067;-74
2024/03/31 15:47:16;;;;;;;8.77;1.70;;;;;;;;;;10210035;28;20759;-74
2024/03/31 15:52:20;;;;;;;7.78;1.40;;;;;;;;;;10213687;28;20054;-74
2024/03/31 15:57:22;;;;;;;8.43;2.00;;;;;;;;;;10186706;28;20056;-74
2024/03/31 16:02:25;;;;;;;14.15;1.98;;;;;;;;;;10186425;28;20044;-74
2024/03/31 16:07:28;;;;;;;6.45;1.30;;;;;;;;;;10173839;28;20066;-74
2024/03/31 16:12:31;;;;;;;9.05;1.98;;;;;;;;;;10199310;28;20717;-74
2024/03/31 16:17:33;;;;;;;6.85;1.67;;;;;;;;;;10188230;28;20046;-74
2024/03/31 16:22:37;;;;;;;7.90;2.05;;;;;;;;;;10206139;28;20082;-74
2024/03/31 16:27:41;;;;;;;7.22;1.35;;;;;;;;;;10192409;28;20537;-74
2024/03/31 16:32:43;;;;;;;6.22;1.10;;;;;;;;;;10195845;28;20054;-74
2024/03/31 16:37:47;;;;;;;6.28;1.13;;;;;;;;;;10214300;28;20058;-74
2024/03/31 16:42:50;;;;;;;5.20;1.65;;;;;;;;;;10208625;28;20055;-74
2024/03/31 16:47:52;;;;;;;8.52;1.92;;;;;;;;;;10189499;28;20032;-74
2024/03/31 16:52:56;;;;;;;5.18;1.25;;;;;;;;;;10185099;28;20438;-74
2024/03/31 16:57:58;;;;;;;5.00;0.95;;;;;;;;;;10184603;28;20062;-74
2024/03/31 17:03:01;;;;;;;6.43;1.52;;;;;;;;;;10184145;28;20050;-74
2024/03/31 17:08:05;;;;;;;2.92;0.88;;;;;;;;;;10183752;28;20456;-74
2024/03/31 17:13:07;;;;;;;6.85;0.75;;;;;;;;;;10217145;28;20064;-74
2024/03/31 17:18:10;;;;;;;4.40;0.82;;;;;;;;;;10182069;28;20052;-74
2024/03/31 17:23:14;;;;;;;4.70;1.10;;;;;;;;;;10186426;28;20055;-74
2024/03/31 17:28:16;;;;;;;3.78;0.85;;;;;;;;;;10187659;28;20720;-74
2024/03/31 17:33:19;;;;;;;4.70;1.00;;;;;;;;;;10187899;28;20424;-74
2024/03/31 17:38:24;;;;;;;5.28;1.10;;;;;;;;;;10189191;28;20040;-74
2024/03/31 17:43:26;;;;;;;6.47;1.00;;;;;;;;;;10181198;28;20052;-74
2024/03/31 17:48:28;;;;;;;4.70;0.90;;;;;;;;;;10182688;28;20467;-74
2024/03/31 17:53:32;;;;;;;3.63;1.10;;;;;;;;;;10185337;28;20122;-73
2024/03/31 17:58:38;;;;;;;3.03;1.08;;;;;;;;;;10180324;28;20050;-73
2024/03/31 18:03:42;;;;;;;7.18;1.50;;;;;;;;;;10189794;28;20063;-74
2024/03/31 18:08:47;;;;;;;6.50;2.13;;;;;;;;;;10203551;28;20048;-74
2024/03/31 18:13:49;;;;;;;7.40;2.20;;;;;;;;;;10186625;28;21045;-74
2024/03/31 18:18:51;;;;;;;3.83;1.35;;;;;;;;;;10194656;28;20051;-73
2024/03/31 18:23:55;;;;;;;3.55;1.13;;;;;;;;;;10193493;28;20146;-74
2024/03/31 18:28:57;;;;;;;2.10;0.85;;;;;;;;;;10193353;28;20059;-74
2024/03/31 18:33:59;;;;;;;1.92;0.82;;;;;;;;;;10193166;28;20138;-74
2024/03/31 18:39:03;;;;;;;3.38;0.70;;;;;;;;;;10186242;28;20098;-74
2024/03/31 18:44:06;;;;;;;1.08;0.47;;;;;;;;;;10178877;28;20045;-74
2024/03/31 18:49:09;;;;;;;2.75;0.98;;;;;;;;;;10177050;28;20064;-74
2024/03/31 18:54:12;;;;;;;3.03;1.00;;;;;;;;;;10180642;28;20139;-74
2024/03/31 18:59:15;;;;;;;3.17;1.08;;;;;;;;;;10195061;28;20484;-74
2024/03/31 19:04:17;;;;;;;3.17;1.30;;;;;;;;;;10189448;28;20047;-74
2024/03/31 19:09:25;;;;;;;5.03;1.80;;;;;;;;;;10188410;28;20052;-74
2024/03/31 19:14:28;;;;;;;3.10;1.35;;;;;;;;;;10193933;28;20062;-74
2024/03/31 19:19:30;;;;;;;3.08;1.50;;;;;;;;;;10196473;28;20056;-74
2024/03/31 19:24:34;;;;;;;4.35;1.35;;;;;;;;;;10191761;28;20059;-74
2024/03/31 19:29:38;;;;;;;8.25;1.65;;;;;;;;;;10185122;28;20048;-74
2024/03/31 19:34:40;;;;;;;4.20;1.70;;;;;;;;;;10190253;28;20129;-74
2024/03/31 19:39:44;;;;;;;7.43;2.38;;;;;;;;;;10189003;28;20059;-74
2024/03/31 19:44:48;;;;;;;3.67;2.10;;;;;;;;;;10190439;28;20067;-74
2024/03/31 19:49:52;;;;;;;6.90;2.15;;;;;;;;;;10188124;28;20055;-74
2024/03/31 19:54:56;;;;;;;6.88;1.83;;;;;;;;;;10200226;28;20052;-74
2024/03/31 19:59:58;;;;;;;4.75;1.73;;;;;;;;;;10195178;28;20552;-74
2024/03/31 20:05:01;;;;;;;3.85;1.00;;;;;;;;;;10199931;28;20060;-73
2024/03/31 20:10:05;;;;;;;1.58;0.40;;;;;;;;;;10190861;28;20046;-74
2024/03/31 20:15:08;;;;;;;2.88;0.65;;;;;;;;;;10211324;28;20051;-74
2024/03/31 20:20:11;;;;;;;0.77;0.20;;;;;;;;;;10211841;28;20079;-74
2024/03/31 20:25:15;;;;;;;0.60;0.20;;;;;;;;;;10221114;28;20103;-74
2024/03/31 20:30:18;;;;;;;0.30;0.20;;;;;;;;;;10182302;28;20642;-73
2024/03/31 20:35:21;;;;;;;1.10;0.52;;;;;;;;;;10218697;28;20409;-73
2024/03/31 20:40:25;;;;;;;0.52;0.30;;;;;;;;;;10185302;28;20060;-74
2024/03/31 20:45:27;;;;;;;0.50;0.20;;;;;;;;;;10249588;28;20421;-73
2024/03/31 20:50:30;;;;;;;0.73;0.30;;;;;;;;;;10165523;28;20052;-73
2024/03/31 20:55:33;;;;;;;0.20;0.20;;;;;;;;;;10174793;28;20052;-74
2024/03/31 21:00:36;;;;;;;0.85;0.32;;;;;;;;;;10184557;28;20050;-74
2024/03/31 21:05:38;;;;;;;0.52;0.38;;;;;;;;;;10209694;28;20044;-73
2024/03/31 21:10:42;;;;;;;0.82;0.47;;;;;;;;;;10184135;28;20620;-73
2024/03/31 21:15:44;;;;;;;1.70;0.55;;;;;;;;;;10202215;28;20062;-73
2024/03/31 21:20:47;;;;;;;0.55;0.50;;;;;;;;;;10186730;29;20055;-74
2024/03/31 21:25:58;;;;;;;1.80;0.40;;;;;;;;;;10216200;28;20044;-74
2024/03/31 21:31:02;;;;;;;0.40;0.40;;;;;;;;;;10214593;28;20052;-74
2024/03/31 21:36:06;;;;;;;0.85;0.30;;;;;;;;;;10189337;28;20055;-74
2024/03/31 21:41:11;;;;;;;0.50;0.38;;;;;;;;;;10186228;28;20044;-74
2024/03/31 21:46:15;;;;;;;0.50;0.40;;;;;;;;;;10180724;28;20055;-74
2024/03/31 21:51:18;;;;;;;0.45;0.22;;;;;;;;;;10196393;28;20048;-74
2024/03/31 21:56:21;;;;;;;1.48;0.47;;;;;;;;;;10184949;28;20048;-73
2024/03/31 22:01:24;;;;;;;0.40;0.40;;;;;;;;;;10179621;28;20048;-73
2024/03/31 22:06:26;;;;;;;1.10;0.52;;;;;;;;;;10195006;28;20042;-74
2024/03/31 22:11:30;;;;;;;2.40;0.60;;;;;;;;;;10208613;28;20119;-74
2024/03/31 22:16:33;;;;;;;1.27;0.40;;;;;;;;;;10189521;28;20047;-74
2024/03/31 22:21:36;;;;;;;0.70;0.30;;;;;;;;;;10201943;28;20098;-73
2024/03/31 22:26:39;;;;;;;0.60;0.35;;;;;;;;;;10182814;28;20058;-74
2024/03/31 22:31:42;;;;;;;0.32;0.32;;;;;;;;;;10184918;28;20047;-74
2024/03/31 22:36:44;;;;;;;0.85;0.40;;;;;;;;;;10186714;28;20067;-73
2024/03/31 22:41:48;;;;;;;0.70;0.32;;;;;;;;;;10171549;28;20578;-74
2024/03/31 22:46:51;;;;;;;0.65;0.38;;;;;;;;;;10212272;28;20287;-74
2024/03/31 22:51:54;;;;;;;0.65;0.30;;;;;;;;;;10256211;28;20070;-74
2024/03/31 22:56:58;;;;;;;2.00;0.60;;;;;;;;;;10191874;28;20081;-73
2024/03/31 23:02:00;;;;;;;0.47;0.30;;;;;;;;;;10198342;28;20044;-73
2024/03/31 23:07:02;;;;;;;0.73;0.40;;;;;;;;;;10181363;28;20052;-74
2024/03/31 23:12:07;;;;;;;1.15;0.47;;;;;;;;;;10181143;28;20086;-74
2024/03/31 23:17:09;;;;;;;0.65;0.30;;;;;;;;;;10191753;28;20445;-74
2024/03/31 23:35:02;;;;;;;0.50;0.30;;;;;;;;;;10204401;28;20046;-75
2024/03/31 23:40:07;;;;;;;0.45;0.28;;;;;;;;;;10116684;28;20068;-75
2024/03/31 23:45:20;;;;;;;0.47;0.20;;;;;;;;;;10125591;28;20609;-75
2024/03/31 23:50:46;;;;;;;0.13;0.13;;;;;;;;;;10136668;28;20570;-75
2024/03/31 23:56:16;;;;;;;0.25;0.20;;;;;;;;;;10097999;28;20057;-75
